createdAt,value
2016-08-07T00:00:33.958Z,966.88
2016-08-07T00:01:36.718Z,966.88
2016-08-07T00:02:32.946Z,966.84
2016-08-07T00:03:27.825Z,966.87
2016-08-07T00:04:33.013Z,966.87
2016-08-07T00:05:34.717Z,966.84
2016-08-07T00:06:14.234Z,966.84
2016-08-07T00:07:29.066Z,966.82
2016-08-07T00:08:27.567Z,966.83
2016-08-07T00:09:14.713Z,966.82
2016-08-07T00:10:18.103Z,966.80
2016-08-07T00:11:39.243Z,966.87
2016-08-07T00:12:14.690Z,966.84
2016-08-07T00:13:37.865Z,966.90
2016-08-07T00:14:34.289Z,966.89
2016-08-07T00:15:36.213Z,966.89
2016-08-07T00:16:31.367Z,966.88
2016-08-07T00:17:27.120Z,966.90
2016-08-07T00:18:21.095Z,966.88
2016-08-07T00:19:12.892Z,966.87
2016-08-07T00:20:33.353Z,966.84
2016-08-07T00:21:19.627Z,966.83
2016-08-07T00:22:44.293Z,966.85
2016-08-07T00:23:31.892Z,966.85
2016-08-07T00:24:33.886Z,966.86
2016-08-07T00:25:42.308Z,966.85
2016-08-07T00:26:40.848Z,966.87
2016-08-07T00:27:34.144Z,966.86
2016-08-07T00:28:15.693Z,966.90
2016-08-07T00:29:22.130Z,966.88
2016-08-07T00:30:22.292Z,966.86
2016-08-07T00:31:13.600Z,966.84
2016-08-07T00:32:35.639Z,966.89
2016-08-07T00:33:35.432Z,966.78
2016-08-07T00:34:40.455Z,966.85
2016-08-07T00:35:22.162Z,966.83
2016-08-07T00:36:34.381Z,966.88
2016-08-07T00:37:33.120Z,966.88
2016-08-07T00:38:30.909Z,966.89
2016-08-07T00:39:39.407Z,966.91
2016-08-07T00:40:32.505Z,966.91
2016-08-07T00:41:43.727Z,966.89
2016-08-07T00:42:40.502Z,966.86
2016-08-07T00:43:16.130Z,966.86
2016-08-07T00:44:31.882Z,966.84
2016-08-07T00:45:33.314Z,966.83
2016-08-07T00:46:33.262Z,966.84
2016-08-07T00:47:36.661Z,966.82
2016-08-07T00:48:26.642Z,966.83
2016-08-07T00:49:25.058Z,966.80
2016-08-07T00:50:33.923Z,966.78
2016-08-07T00:51:27.004Z,966.80
2016-08-07T00:52:37.502Z,966.79
2016-08-07T00:53:39.450Z,966.78
2016-08-07T00:54:30.132Z,966.79
2016-08-07T00:55:34.246Z,966.79
2016-08-07T00:56:25.280Z,966.81
2016-08-07T00:57:28.656Z,966.78
2016-08-07T00:58:36.928Z,966.80
2016-08-07T00:59:27.903Z,966.80
2016-08-07T01:00:31.159Z,966.78
2016-08-07T01:01:42.955Z,966.83
2016-08-07T01:02:32.977Z,966.83
2016-08-07T01:03:27.416Z,966.80
2016-08-07T01:04:21.579Z,966.83
2016-08-07T01:05:23.178Z,966.80
2016-08-07T01:06:18.448Z,966.81
2016-08-07T01:07:44.583Z,966.78
2016-08-07T01:08:27.272Z,966.76
2016-08-07T01:09:28.963Z,966.77
2016-08-07T01:10:15.629Z,966.75
2016-08-07T01:11:19.967Z,966.75
2016-08-07T01:12:13.554Z,966.74
2016-08-07T01:13:40.583Z,966.74
2016-08-07T01:14:39.913Z,966.70
2016-08-07T01:15:36.253Z,966.69
2016-08-07T01:16:28.275Z,966.73
2016-08-07T01:17:33.515Z,966.72
2016-08-07T01:18:21.568Z,966.72
2016-08-07T01:19:33.085Z,966.71
2016-08-07T01:20:39.731Z,966.74
2016-08-07T01:21:28.933Z,966.69
2016-08-07T01:22:13.876Z,966.71
2016-08-07T01:23:31.707Z,966.72
2016-08-07T01:24:21.942Z,966.71
2016-08-07T01:25:41.959Z,966.69
2016-08-07T01:26:46.195Z,966.69
2016-08-07T01:27:37.205Z,966.66
2016-08-07T01:28:14.092Z,966.64
2016-08-07T01:29:31.206Z,966.65
2016-08-07T01:30:30.996Z,966.63
2016-08-07T01:31:13.395Z,966.65
2016-08-07T01:32:22.682Z,966.62
2016-08-07T01:33:29.554Z,966.66
2016-08-07T01:34:38.447Z,966.63
2016-08-07T01:35:13.610Z,966.67
2016-08-07T01:37:34.529Z,966.63
2016-08-07T01:38:33.318Z,966.64
2016-08-07T01:39:43.284Z,966.63
2016-08-07T01:40:33.445Z,966.63
2016-08-07T01:41:16.013Z,966.61
2016-08-07T01:42:38.137Z,966.61
2016-08-07T01:43:33.458Z,966.60
2016-08-07T01:44:37.760Z,966.60
2016-08-07T01:45:31.378Z,966.57
2016-08-07T01:46:29.259Z,966.56
2016-08-07T01:47:27.749Z,966.58
2016-08-07T01:48:31.515Z,966.56
2016-08-07T01:49:40.927Z,966.60
2016-08-07T01:50:13.162Z,966.58
2016-08-07T01:51:48.786Z,966.54
2016-08-07T01:52:37.661Z,966.62
2016-08-07T01:53:28.285Z,966.57
2016-08-07T01:54:39.160Z,966.58
2016-08-07T01:55:30.749Z,966.60
2016-08-07T01:56:24.159Z,966.61
2016-08-07T01:57:24.803Z,966.55
2016-08-07T01:58:39.335Z,966.52
2016-08-07T01:59:30.820Z,966.51
2016-08-07T02:00:24.586Z,966.51
2016-08-07T02:01:33.232Z,966.49
2016-08-07T02:02:32.716Z,966.50
2016-08-07T02:03:28.643Z,966.48
2016-08-07T02:04:23.677Z,966.49
2016-08-07T02:05:18.853Z,966.49
2016-08-07T02:07:34.649Z,966.47
2016-08-07T02:08:34.190Z,966.44
2016-08-07T02:09:31.883Z,966.47
2016-08-07T02:10:39.018Z,966.50
2016-08-07T02:11:43.745Z,966.46
2016-08-07T02:12:31.057Z,966.51
2016-08-07T02:13:28.152Z,966.48
2016-08-07T02:14:32.819Z,966.43
2016-08-07T02:15:20.687Z,966.46
2016-08-07T02:16:28.772Z,966.46
2016-08-07T02:17:22.115Z,966.47
2016-08-07T02:18:28.753Z,966.45
2016-08-07T02:19:38.834Z,966.42
2016-08-07T02:20:22.035Z,966.44
2016-08-07T02:21:42.137Z,966.44
2016-08-07T02:22:38.138Z,966.41
2016-08-07T02:23:29.120Z,966.44
2016-08-07T02:24:26.927Z,966.47
2016-08-07T02:25:38.664Z,966.49
2016-08-07T02:26:36.628Z,966.46
2016-08-07T02:27:47.597Z,966.45
2016-08-07T02:28:22.872Z,966.45
2016-08-07T02:29:21.844Z,966.49
2016-08-07T02:30:36.812Z,966.41
2016-08-07T02:31:32.614Z,966.46
2016-08-07T02:32:42.672Z,966.44
2016-08-07T02:33:38.063Z,966.44
2016-08-07T02:34:25.488Z,966.45
2016-08-07T02:35:18.102Z,966.47
2016-08-07T02:37:38.379Z,966.47
2016-08-07T02:38:30.645Z,966.47
2016-08-07T02:39:33.443Z,966.47
2016-08-07T02:40:31.712Z,966.52
2016-08-07T02:41:33.431Z,966.49
2016-08-07T02:42:21.834Z,966.52
2016-08-07T02:43:33.301Z,966.53
2016-08-07T02:44:28.550Z,966.52
2016-08-07T02:45:39.723Z,966.51
2016-08-07T02:46:45.892Z,966.53
2016-08-07T02:47:37.601Z,966.56
2016-08-07T02:48:14.112Z,966.51
2016-08-07T02:49:27.761Z,966.48
2016-08-07T02:50:22.277Z,966.47
2016-08-07T02:51:38.615Z,966.54
2016-08-07T02:52:37.999Z,966.54
2016-08-07T02:53:18.192Z,966.53
2016-08-07T02:54:31.700Z,966.54
2016-08-07T02:55:38.019Z,966.57
2016-08-07T02:56:27.878Z,966.54
2016-08-07T02:57:38.404Z,966.57
2016-08-07T02:58:40.190Z,966.57
2016-08-07T02:59:37.859Z,966.57
2016-08-07T03:00:23.952Z,966.59
2016-08-07T03:01:14.693Z,966.59
2016-08-07T03:02:36.941Z,966.59
2016-08-07T03:03:29.059Z,966.61
2016-08-07T03:04:23.652Z,966.58
2016-08-07T03:05:33.319Z,966.58
2016-08-07T03:06:40.042Z,966.59
2016-08-07T03:07:35.864Z,966.56
2016-08-07T03:08:31.639Z,966.54
2016-08-07T03:09:47.229Z,966.53
2016-08-07T03:10:44.764Z,966.55
2016-08-07T03:11:38.670Z,966.54
2016-08-07T03:12:29.153Z,966.57
2016-08-07T03:13:38.338Z,966.55
2016-08-07T03:14:32.934Z,966.55
2016-08-07T03:15:34.748Z,966.57
2016-08-07T03:16:42.430Z,966.56
2016-08-07T03:17:38.722Z,966.56
2016-08-07T03:18:34.179Z,966.53
2016-08-07T03:19:28.396Z,966.51
2016-08-07T03:20:31.257Z,966.53
2016-08-07T03:21:19.732Z,966.53
2016-08-07T03:22:20.012Z,966.52
2016-08-07T03:23:38.920Z,966.53
2016-08-07T03:24:44.505Z,966.54
2016-08-07T03:25:32.491Z,966.52
2016-08-07T03:26:38.521Z,966.54
2016-08-07T03:27:25.981Z,966.52
2016-08-07T03:28:31.188Z,966.48
2016-08-07T03:29:25.233Z,966.54
2016-08-07T03:30:33.182Z,966.56
2016-08-07T03:31:25.521Z,966.58
2016-08-07T03:32:14.835Z,966.58
2016-08-07T03:33:28.776Z,966.56
2016-08-07T03:34:27.739Z,966.57
2016-08-07T03:35:28.058Z,966.60
2016-08-07T03:37:31.665Z,966.58
2016-08-07T03:38:39.156Z,966.58
2016-08-07T03:39:27.487Z,966.61
2016-08-07T03:40:46.848Z,966.58
2016-08-07T03:41:38.173Z,966.58
2016-08-07T03:42:31.177Z,966.61
2016-08-07T03:43:39.976Z,966.62
2016-08-07T03:44:40.011Z,966.65
2016-08-07T03:45:36.759Z,966.66
2016-08-07T03:46:34.666Z,966.66
2016-08-07T03:47:13.596Z,966.66
2016-08-07T03:48:28.091Z,966.68
2016-08-07T03:49:38.531Z,966.68
2016-08-07T03:50:22.361Z,966.69
2016-08-07T03:51:19.878Z,966.70
2016-08-07T03:52:39.356Z,966.74
2016-08-07T03:53:38.305Z,966.72
2016-08-07T03:54:13.012Z,966.75
2016-08-07T03:55:34.483Z,966.73
2016-08-07T03:56:39.018Z,966.73
2016-08-07T03:57:31.863Z,966.74
2016-08-07T03:58:40.379Z,966.72
2016-08-07T03:59:45.948Z,966.76
2016-08-07T04:00:34.417Z,966.76
2016-08-07T04:01:26.554Z,966.81
2016-08-07T04:02:15.416Z,966.80
2016-08-07T04:03:32.354Z,966.77
2016-08-07T04:04:40.723Z,966.86
2016-08-07T04:05:36.036Z,966.83
2016-08-07T04:07:27.340Z,966.85
2016-08-07T04:08:37.392Z,966.85
2016-08-07T04:09:49.075Z,966.83
2016-08-07T04:10:25.622Z,966.86
2016-08-07T04:11:32.630Z,966.84
2016-08-07T04:12:15.973Z,966.85
2016-08-07T04:13:40.236Z,966.89
2016-08-07T04:14:22.458Z,966.82
2016-08-07T04:15:31.406Z,966.84
2016-08-07T04:16:34.963Z,966.85
2016-08-07T04:17:35.543Z,966.86
2016-08-07T04:18:32.283Z,966.88
2016-08-07T04:19:32.250Z,966.86
2016-08-07T04:20:37.729Z,966.86
2016-08-07T04:21:34.115Z,966.87
2016-08-07T04:22:29.593Z,966.84
2016-08-07T04:23:37.016Z,966.84
2016-08-07T04:24:29.338Z,966.85
2016-08-07T04:25:26.502Z,966.84
2016-08-07T04:26:33.190Z,966.85
2016-08-07T04:27:36.675Z,966.83
2016-08-07T04:28:22.507Z,966.87
2016-08-07T04:29:38.954Z,966.86
2016-08-07T04:30:33.378Z,966.87
2016-08-07T04:31:40.539Z,966.85
2016-08-07T04:32:35.644Z,966.84
2016-08-07T04:33:39.339Z,966.90
2016-08-07T04:34:35.068Z,966.89
2016-08-07T04:35:20.379Z,966.95
2016-08-07T04:36:40.816Z,966.95
2016-08-07T04:37:14.341Z,966.96
2016-08-07T04:38:40.154Z,966.97
2016-08-07T04:39:33.706Z,966.99
2016-08-07T04:40:43.739Z,966.98
2016-08-07T04:41:29.713Z,966.96
2016-08-07T04:42:15.585Z,967.01
2016-08-07T04:43:15.288Z,966.99
2016-08-07T04:44:12.671Z,967.03
2016-08-07T04:45:33.916Z,967.03
2016-08-07T04:46:43.206Z,967.05
2016-08-07T04:47:22.379Z,967.06
2016-08-07T04:48:51.210Z,967.07
2016-08-07T04:49:34.520Z,967.07
2016-08-07T04:50:33.617Z,967.04
2016-08-07T04:51:25.451Z,967.06
2016-08-07T04:52:28.988Z,967.08
2016-08-07T04:53:40.263Z,967.08
2016-08-07T04:54:14.757Z,967.08
2016-08-07T04:55:36.488Z,967.11
2016-08-07T04:56:44.581Z,967.10
2016-08-07T04:57:16.904Z,967.12
2016-08-07T04:58:33.174Z,967.15
2016-08-07T04:59:42.615Z,967.17
2016-08-07T05:00:39.367Z,967.15
2016-08-07T05:01:38.401Z,967.13
2016-08-07T05:02:36.067Z,967.17
2016-08-07T05:03:21.893Z,967.18
2016-08-07T05:04:45.947Z,967.16
2016-08-07T05:05:45.068Z,967.17
2016-08-07T05:06:13.870Z,967.16
2016-08-07T05:07:41.387Z,967.20
2016-08-07T05:08:13.715Z,967.21
2016-08-07T05:09:33.054Z,967.22
2016-08-07T05:10:33.620Z,967.20
2016-08-07T05:11:22.382Z,967.20
2016-08-07T05:12:32.859Z,967.24
2016-08-07T05:13:44.516Z,967.27
2016-08-07T05:14:42.461Z,967.25
2016-08-07T05:15:43.717Z,967.28
2016-08-07T05:16:32.705Z,967.30
2016-08-07T05:17:38.117Z,967.36
2016-08-07T05:18:34.236Z,967.35
2016-08-07T05:19:34.582Z,967.29
2016-08-07T05:20:38.108Z,967.28
2016-08-07T05:21:14.843Z,967.34
2016-08-07T05:22:38.308Z,967.34
2016-08-07T05:23:31.401Z,967.34
2016-08-07T05:24:43.698Z,967.32
2016-08-07T05:25:36.627Z,967.35
2016-08-07T05:26:30.840Z,967.33
2016-08-07T05:27:17.303Z,967.35
2016-08-07T05:28:14.915Z,967.36
2016-08-07T05:29:42.451Z,967.34
2016-08-07T05:30:32.853Z,967.33
2016-08-07T05:31:37.877Z,967.29
2016-08-07T05:32:33.692Z,967.32
2016-08-07T05:33:37.879Z,967.31
2016-08-07T05:34:40.733Z,967.34
2016-08-07T05:35:30.539Z,967.30
2016-08-07T05:36:30.759Z,967.30
2016-08-07T05:38:33.448Z,967.30
2016-08-07T05:39:27.022Z,967.31
2016-08-07T05:40:33.785Z,967.29
2016-08-07T05:41:34.529Z,967.32
2016-08-07T05:42:36.297Z,967.29
2016-08-07T05:43:39.657Z,967.34
2016-08-07T05:44:37.762Z,967.34
2016-08-07T05:45:38.050Z,967.36
2016-08-07T05:46:40.198Z,967.33
2016-08-07T05:47:34.856Z,967.32
2016-08-07T05:48:41.216Z,967.38
2016-08-07T05:49:29.194Z,967.42
2016-08-07T05:50:31.003Z,967.40
2016-08-07T05:51:34.145Z,967.41
2016-08-07T05:52:29.000Z,967.31
2016-08-07T05:53:40.411Z,967.33
2016-08-07T05:54:39.859Z,967.35
2016-08-07T05:55:34.367Z,967.31
2016-08-07T05:56:38.805Z,967.35
2016-08-07T05:57:37.042Z,967.37
2016-08-07T05:58:34.013Z,967.37
2016-08-07T05:59:34.223Z,967.35
2016-08-07T06:00:26.166Z,967.35
2016-08-07T06:01:31.847Z,967.34
2016-08-07T06:02:38.129Z,967.36
2016-08-07T06:03:16.148Z,967.38
2016-08-07T06:04:32.496Z,967.34
2016-08-07T06:05:43.296Z,967.36
2016-08-07T06:06:34.371Z,967.37
2016-08-07T06:07:34.442Z,967.35
2016-08-07T06:08:28.068Z,967.41
2016-08-07T06:09:42.468Z,967.39
2016-08-07T06:10:38.319Z,967.38
2016-08-07T06:11:26.440Z,967.35
2016-08-07T06:12:35.772Z,967.37
2016-08-07T06:13:32.938Z,967.37
2016-08-07T06:14:33.360Z,967.42
2016-08-07T06:15:16.021Z,967.46
2016-08-07T06:16:31.862Z,967.53
2016-08-07T06:17:49.835Z,967.40
2016-08-07T06:18:41.359Z,967.47
2016-08-07T06:19:48.352Z,967.45
2016-08-07T06:20:32.896Z,967.46
2016-08-07T06:21:31.075Z,967.47
2016-08-07T06:22:38.888Z,967.46
2016-08-07T06:23:30.806Z,967.47
2016-08-07T06:24:45.109Z,967.48
2016-08-07T06:25:33.896Z,967.48
2016-08-07T06:26:27.427Z,967.51
2016-08-07T06:27:38.914Z,967.53
2016-08-07T06:28:40.762Z,967.53
2016-08-07T06:29:39.427Z,967.54
2016-08-07T06:30:39.204Z,967.53
2016-08-07T06:31:34.457Z,967.46
2016-08-07T06:32:38.059Z,967.52
2016-08-07T06:33:39.130Z,967.46
2016-08-07T06:34:24.919Z,967.50
2016-08-07T06:35:35.796Z,967.49
2016-08-07T06:36:37.448Z,967.51
2016-08-07T06:37:36.391Z,967.49
2016-08-07T06:38:32.178Z,967.49
2016-08-07T06:39:31.534Z,967.48
2016-08-07T06:40:40.133Z,967.49
2016-08-07T06:41:33.176Z,967.52
2016-08-07T06:42:40.784Z,967.48
2016-08-07T06:43:14.023Z,967.50
2016-08-07T06:44:33.949Z,967.51
2016-08-07T06:45:15.359Z,967.54
2016-08-07T06:46:38.914Z,967.55
2016-08-07T06:47:40.134Z,967.54
2016-08-07T06:48:34.994Z,967.58
2016-08-07T06:49:39.333Z,967.57
2016-08-07T06:50:28.883Z,967.57
2016-08-07T06:51:38.799Z,967.51
2016-08-07T06:52:42.792Z,967.55
2016-08-07T06:53:40.249Z,967.51
2016-08-07T06:54:30.800Z,967.53
2016-08-07T06:55:22.121Z,967.57
2016-08-07T06:56:33.539Z,967.47
2016-08-07T06:57:22.902Z,967.49
2016-08-07T06:58:30.267Z,967.50
2016-08-07T06:59:42.099Z,967.49
2016-08-07T07:00:33.424Z,967.52
2016-08-07T07:01:44.488Z,967.51
2016-08-07T07:02:30.331Z,967.47
2016-08-07T07:03:21.965Z,967.51
2016-08-07T07:04:33.822Z,967.52
2016-08-07T07:05:38.178Z,967.49
2016-08-07T07:06:26.804Z,967.48
2016-08-07T07:08:28.122Z,967.48
2016-08-07T07:09:16.079Z,967.50
2016-08-07T07:10:16.862Z,967.48
2016-08-07T07:11:39.256Z,967.51
2016-08-07T07:12:39.750Z,967.52
2016-08-07T07:13:36.021Z,967.54
2016-08-07T07:14:14.549Z,967.48
2016-08-07T07:15:17.367Z,967.60
2016-08-07T07:16:26.173Z,967.55
2016-08-07T07:17:43.620Z,967.58
2016-08-07T07:18:37.793Z,967.57
2016-08-07T07:19:13.263Z,967.55
2016-08-07T07:20:26.902Z,967.50
2016-08-07T07:21:42.810Z,967.50
2016-08-07T07:22:26.818Z,967.53
2016-08-07T07:23:25.131Z,967.52
2016-08-07T07:24:38.691Z,967.48
2016-08-07T07:25:48.677Z,967.48
2016-08-07T07:26:28.118Z,967.49
2016-08-07T07:27:33.593Z,967.50
2016-08-07T07:28:20.020Z,967.48
2016-08-07T07:29:39.261Z,967.47
2016-08-07T07:30:22.937Z,967.48
2016-08-07T07:31:45.199Z,967.47
2016-08-07T07:32:21.126Z,967.49
2016-08-07T07:33:16.385Z,967.50
2016-08-07T07:34:23.286Z,967.53
2016-08-07T07:35:32.028Z,967.52
2016-08-07T07:36:36.054Z,967.49
2016-08-07T07:37:15.334Z,967.55
2016-08-07T07:38:33.622Z,967.54
2016-08-07T07:39:13.831Z,967.52
2016-08-07T07:40:41.433Z,967.51
2016-08-07T07:41:36.226Z,967.52
2016-08-07T07:42:33.258Z,967.52
2016-08-07T07:43:24.567Z,967.48
2016-08-07T07:44:30.508Z,967.45
2016-08-07T07:45:25.395Z,967.45
2016-08-07T07:46:32.255Z,967.46
2016-08-07T07:47:35.751Z,967.47
2016-08-07T08:02:01.662Z,967.48
2016-08-07T08:02:27.785Z,967.50
2016-08-07T08:03:37.771Z,967.50
2016-08-07T08:04:15.146Z,967.44
2016-08-07T08:05:22.178Z,967.49
2016-08-07T08:06:22.044Z,967.51
2016-08-07T08:07:16.355Z,967.49
2016-08-07T08:08:13.373Z,967.49
2016-08-07T08:09:13.445Z,967.55
2016-08-07T08:10:12.113Z,967.48
2016-08-07T08:11:19.767Z,967.51
2016-08-07T08:12:21.449Z,967.55
2016-08-07T08:13:15.445Z,967.55
2016-08-07T08:14:39.443Z,967.48
2016-08-07T08:15:14.653Z,967.50
2016-08-07T08:16:39.357Z,967.57
2016-08-07T08:17:20.567Z,967.50
2016-08-07T08:18:32.091Z,967.54
2016-08-07T08:19:26.128Z,967.55
2016-08-07T08:20:31.695Z,967.51
2016-08-07T08:21:23.086Z,967.49
2016-08-07T08:22:23.014Z,967.48
2016-08-07T08:23:26.776Z,967.39
2016-08-07T08:24:27.450Z,967.43
2016-08-07T08:25:32.036Z,967.42
2016-08-07T08:26:20.308Z,967.41
2016-08-07T08:27:34.141Z,967.40
2016-08-07T08:28:13.364Z,967.41
2016-08-07T08:29:14.556Z,967.38
2016-08-07T08:30:14.962Z,967.38
2016-08-07T08:31:12.372Z,967.41
2016-08-07T08:32:23.059Z,967.44
2016-08-07T08:33:16.497Z,967.40
2016-08-07T08:34:27.963Z,967.41
2016-08-07T08:35:22.455Z,967.40
2016-08-07T08:36:14.095Z,967.43
2016-08-07T08:37:20.554Z,967.43
2016-08-07T08:38:24.085Z,967.41
2016-08-07T08:39:22.667Z,967.45
2016-08-07T08:40:22.643Z,967.43
2016-08-07T08:41:27.874Z,967.43
2016-08-07T08:42:17.046Z,967.43
2016-08-07T08:43:21.775Z,967.44
2016-08-07T08:44:32.084Z,967.45
2016-08-07T08:45:28.400Z,967.41
2016-08-07T08:46:20.928Z,967.40
2016-08-07T08:47:13.417Z,967.42
2016-08-07T08:48:16.863Z,967.36
2016-08-07T08:49:15.898Z,967.39
2016-08-07T08:50:13.563Z,967.41
2016-08-07T08:51:21.784Z,967.37
2016-08-07T08:52:35.167Z,967.35
2016-08-07T08:53:16.424Z,967.33
2016-08-07T08:54:11.601Z,967.31
2016-08-07T08:55:31.992Z,967.32
2016-08-07T08:56:14.361Z,967.31
2016-08-07T08:57:23.774Z,967.34
2016-08-07T08:58:28.994Z,967.32
2016-08-07T08:59:20.038Z,967.31
2016-08-07T09:00:21.826Z,967.29
2016-08-07T09:01:17.491Z,967.28
2016-08-07T09:02:26.837Z,967.29
2016-08-07T09:03:13.677Z,967.26
2016-08-07T09:04:22.158Z,967.27
2016-08-07T09:05:17.865Z,967.28
2016-08-07T09:06:32.776Z,967.24
2016-08-07T09:07:20.025Z,967.25
2016-08-07T09:08:15.814Z,967.28
2016-08-07T09:09:23.949Z,967.26
2016-08-07T09:10:27.984Z,967.23
2016-08-07T09:11:20.870Z,967.20
2016-08-07T09:12:44.780Z,967.19
2016-08-07T09:13:13.308Z,967.20
2016-08-07T09:14:21.437Z,967.20
2016-08-07T09:15:18.492Z,967.24
2016-08-07T09:16:27.299Z,967.18
2016-08-07T09:17:32.433Z,967.19
2016-08-07T09:18:15.657Z,967.16
2016-08-07T09:19:24.415Z,967.14
2016-08-07T09:20:10.638Z,967.17
2016-08-07T09:21:26.730Z,967.18
2016-08-07T09:22:32.542Z,967.20
2016-08-07T09:24:29.708Z,967.20
2016-08-07T09:25:23.076Z,967.16
2016-08-07T09:26:20.127Z,967.18
2016-08-07T09:27:30.891Z,967.12
2016-08-07T09:28:19.070Z,967.18
2016-08-07T09:29:15.115Z,967.12
2016-08-07T09:30:26.939Z,967.15
2016-08-07T09:31:17.469Z,967.13
2016-08-07T09:32:22.934Z,967.13
2016-08-07T09:33:28.788Z,967.13
2016-08-07T09:34:23.781Z,967.07
2016-08-07T09:35:22.584Z,967.10
2016-08-07T09:36:17.104Z,967.09
2016-08-07T09:37:19.591Z,967.07
2016-08-07T09:38:23.254Z,967.07
2016-08-07T09:39:16.824Z,967.11
2016-08-07T09:40:28.121Z,967.09
2016-08-07T09:41:16.112Z,967.08
2016-08-07T09:42:15.367Z,967.08
2016-08-07T09:43:16.244Z,967.06
2016-08-07T09:44:22.118Z,967.07
2016-08-07T09:45:18.687Z,967.07
2016-08-07T09:46:26.636Z,967.03
2016-08-07T09:47:27.045Z,967.03
2016-08-07T09:48:13.835Z,967.04
2016-08-07T09:49:21.083Z,967.06
2016-08-07T09:50:26.213Z,967.05
2016-08-07T09:51:22.291Z,967.01
2016-08-07T09:52:28.584Z,967.03
2016-08-07T09:54:20.704Z,967.03
2016-08-07T09:55:21.673Z,967.09
2016-08-07T09:56:14.280Z,967.06
2016-08-07T09:57:19.295Z,967.08
2016-08-07T09:58:16.676Z,967.09
2016-08-07T09:59:20.579Z,967.09
2016-08-07T10:00:17.264Z,967.07
2016-08-07T10:01:19.661Z,967.06
2016-08-07T10:02:17.597Z,967.06
2016-08-07T10:03:15.380Z,967.06
2016-08-07T10:04:13.931Z,967.08
2016-08-07T10:05:21.341Z,967.10
2016-08-07T10:06:21.105Z,967.10
2016-08-07T10:07:20.222Z,967.08
2016-08-07T10:09:19.455Z,967.02
2016-08-07T10:10:20.898Z,967.01
2016-08-07T10:11:21.325Z,967.01
2016-08-07T10:12:18.019Z,966.96
2016-08-07T10:13:22.753Z,966.97
2016-08-07T10:14:28.664Z,966.87
2016-08-07T10:15:22.081Z,966.92
2016-08-07T10:16:13.019Z,966.92
2016-08-07T10:17:34.134Z,966.93
2016-08-07T10:18:27.627Z,966.91
2016-08-07T10:19:17.734Z,966.87
2016-08-07T10:20:22.716Z,966.84
2016-08-07T10:21:27.475Z,966.85
2016-08-07T10:22:23.169Z,966.87
2016-08-07T10:24:27.605Z,966.84
2016-08-07T10:25:21.936Z,966.87
2016-08-07T10:26:17.018Z,966.90
2016-08-07T10:27:21.493Z,966.93
2016-08-07T10:28:27.130Z,966.86
2016-08-07T10:29:27.317Z,966.88
2016-08-07T10:30:30.878Z,966.87
2016-08-07T10:31:25.212Z,966.85
2016-08-07T10:32:34.414Z,966.87
2016-08-07T10:33:28.189Z,966.86
2016-08-07T10:34:34.410Z,966.89
2016-08-07T10:35:34.486Z,966.86
2016-08-07T10:36:24.211Z,966.83
2016-08-07T10:37:27.087Z,966.78
2016-08-07T10:39:15.796Z,966.77
2016-08-07T10:40:18.184Z,966.78
2016-08-07T10:41:23.940Z,966.78
2016-08-07T10:42:22.171Z,966.75
2016-08-07T10:43:36.951Z,966.79
2016-08-07T10:44:15.265Z,966.76
2016-08-07T10:45:14.615Z,966.77
2016-08-07T10:46:25.726Z,966.80
2016-08-07T10:47:36.947Z,966.74
2016-08-07T10:48:27.157Z,966.79
2016-08-07T10:49:30.126Z,966.78
2016-08-07T10:50:25.377Z,966.74
2016-08-07T10:51:26.225Z,966.76
2016-08-07T10:52:29.842Z,966.73
2016-08-07T10:53:18.391Z,966.74
2016-08-07T10:54:26.506Z,966.70
2016-08-07T10:55:16.130Z,966.71
2016-08-07T10:56:16.954Z,966.68
2016-08-07T10:57:21.305Z,966.67
2016-08-07T10:58:27.764Z,966.69
2016-08-07T10:59:19.886Z,966.69
2016-08-07T11:00:23.938Z,966.70
2016-08-07T11:01:16.550Z,966.67
2016-08-07T11:02:37.288Z,966.64
2016-08-07T11:03:13.506Z,966.64
2016-08-07T11:04:23.312Z,966.67
2016-08-07T11:05:28.439Z,966.64
2016-08-07T11:06:27.217Z,966.63
2016-08-07T11:07:27.392Z,966.67
2016-08-07T11:08:18.104Z,966.63
2016-08-07T11:09:13.079Z,966.64
2016-08-07T11:10:13.268Z,966.59
2016-08-07T11:11:15.154Z,966.59
2016-08-07T11:12:13.406Z,966.55
2016-08-07T11:13:15.316Z,966.54
2016-08-07T11:14:15.607Z,966.55
2016-08-07T11:15:15.311Z,966.52
2016-08-07T11:16:14.051Z,966.51
2016-08-07T11:17:22.206Z,966.54
2016-08-07T11:18:18.619Z,966.51
2016-08-07T11:19:23.057Z,966.53
2016-08-07T11:20:19.668Z,966.55
2016-08-07T11:21:24.078Z,966.54
2016-08-07T11:22:15.394Z,966.57
2016-08-07T11:23:17.047Z,966.59
2016-08-07T11:24:17.514Z,966.56
2016-08-07T11:25:14.203Z,966.53
2016-08-07T11:26:16.462Z,966.54
2016-08-07T11:27:18.520Z,966.51
2016-08-07T11:28:16.452Z,966.54
2016-08-07T11:29:15.204Z,966.48
2016-08-07T11:30:15.429Z,966.52
2016-08-07T11:31:13.764Z,966.49
2016-08-07T11:32:14.154Z,966.46
2016-08-07T11:33:13.747Z,966.45
2016-08-07T11:34:14.819Z,966.49
2016-08-07T11:35:12.596Z,966.43
2016-08-07T11:36:18.899Z,966.42
2016-08-07T11:37:14.917Z,966.41
2016-08-07T11:38:13.217Z,966.44
2016-08-07T11:39:13.021Z,966.43
2016-08-07T11:40:12.428Z,966.43
2016-08-07T11:41:13.960Z,966.41
2016-08-07T11:42:17.460Z,966.42
2016-08-07T11:43:14.191Z,966.39
2016-08-07T11:44:16.147Z,966.40
2016-08-07T11:45:17.203Z,966.35
2016-08-07T11:46:18.885Z,966.35
2016-08-07T11:47:16.252Z,966.35
2016-08-07T11:48:18.395Z,966.32
2016-08-07T11:49:27.477Z,966.29
2016-08-07T11:50:21.501Z,966.20
2016-08-07T11:51:16.379Z,966.21
2016-08-07T11:52:15.937Z,966.22
2016-08-07T11:53:15.346Z,966.19
2016-08-07T11:54:15.221Z,966.14
2016-08-07T11:55:14.955Z,966.16
2016-08-07T11:56:13.237Z,966.14
2016-08-07T11:57:14.402Z,966.13
2016-08-07T11:58:12.712Z,966.12
2016-08-07T11:59:12.188Z,966.13
2016-08-07T12:00:22.206Z,966.08
2016-08-07T12:01:14.864Z,966.07
2016-08-07T12:02:16.005Z,966.04
2016-08-07T12:03:15.077Z,966.08
2016-08-07T12:04:14.375Z,966.08
2016-08-07T12:05:13.914Z,966.06
2016-08-07T12:06:13.748Z,966.00
2016-08-07T12:07:12.536Z,966.00
2016-08-07T12:08:14.556Z,966.05
2016-08-07T12:09:12.575Z,966.00
2016-08-07T12:10:13.336Z,966.00
2016-08-07T12:11:14.603Z,965.98
2016-08-07T12:12:11.960Z,965.93
2016-08-07T12:13:11.567Z,965.95
2016-08-07T12:14:12.179Z,965.91
2016-08-07T12:15:12.568Z,965.94
2016-08-07T12:16:17.352Z,965.96
2016-08-07T12:17:12.908Z,965.94
2016-08-07T12:18:14.414Z,965.92
2016-08-07T12:19:13.181Z,965.91
2016-08-07T12:20:13.377Z,965.93
2016-08-07T12:21:19.120Z,965.90
2016-08-07T12:22:20.467Z,965.88
2016-08-07T12:23:16.671Z,965.83
2016-08-07T12:24:13.214Z,965.86
2016-08-07T12:25:16.357Z,965.85
2016-08-07T12:26:16.831Z,965.80
2016-08-07T12:27:16.266Z,965.83
2016-08-07T12:28:16.041Z,965.83
2016-08-07T12:29:18.823Z,965.83
2016-08-07T12:30:13.819Z,965.82
2016-08-07T12:31:15.280Z,965.78
2016-08-07T12:32:12.666Z,965.78
2016-08-07T12:33:12.258Z,965.75
2016-08-07T12:34:18.059Z,965.79
2016-08-07T12:35:13.295Z,965.72
2016-08-07T12:36:15.980Z,965.67
2016-08-07T12:37:13.296Z,965.71
2016-08-07T12:38:16.025Z,965.65
2016-08-07T12:39:14.075Z,965.68
2016-08-07T12:40:15.281Z,965.67
2016-08-07T12:41:15.113Z,965.66
2016-08-07T12:42:22.570Z,965.68
2016-08-07T12:43:14.091Z,965.66
2016-08-07T12:44:17.170Z,965.70
2016-08-07T12:45:22.219Z,965.65
2016-08-07T12:46:16.780Z,965.69
2016-08-07T12:47:11.184Z,965.70
2016-08-07T12:48:15.666Z,965.70
2016-08-07T12:49:20.569Z,965.63
2016-08-07T12:50:14.686Z,965.64
2016-08-07T12:51:18.951Z,965.62
2016-08-07T12:52:19.160Z,965.58
2016-08-07T12:53:15.346Z,965.57